Airfield :
LOGIN :

Register | Disclaimer

   EN    FR    IT 

 










Legend :    VFR   Marginal VFR   IFR   Intensive IFR   Very Intensive IFR
Visi :
Ceiling :
>= 8 km
>= 3000ft
5 to 8 km
1000 to 3000 ft
1500m to 5 km
500 to 1000 ft
800 to 1500m
200 to 500 ft
< 800m
< 200 ft
Symbols :   Thunderstorms  Fog  Heavy snow  Heavy precipitations  Wind > 20 kt
SIGMETs :     Misc.  Thunderstorms  Icing  Turbulence  Mountain Waves  Volcanic Ashes







- Airport Elevation : 46 ft
- IATA code : SNN


EINN - Shannon

CURRENT METAR :
  • 190600Z 17004KT 9999 FEW003 BKN060 10/09 Q1010 NOSIG

EXPIRED METARs :
  • 190530Z 17004KT 8000 R24/P2000 R06/P2000 MIFG FEW004 BKN050 10/09 Q1010 NOSIG
  • 190500Z 13002KT 6000 R24/P2000 R06/P2000 MIFG SCT003 BKN010 09/08 Q1010 NOSIG
  • 190430Z 13002KT 2000 R24/P2000 R06/P2000 MIFG FEW004 08/07 Q1010 NOSIG
  • 190400Z 25002KT 6000 R24/0600U R06/P2000 MIFG FEW004 09/09 Q1010 NOSIG

TAF TAF EINN
Valid from the 19 at 06:00 until the 20 at 06:00 UTC


190500Z 1906/2006 25007KT 9999 FEW020 SCT030
BECMG 1908/1910 28010KT
TEMPO 1909/2006 -SHRA SCT018CB
BECMG 2000/2002 24005KT
No reported NOTAMs for that airfield.



MET'MAP, your aeronautical weather chart ! - Copyright ORBIFLY December 2007 - Disclaimer

ORBIFLY MET'MAP TEAM :

Programming & Development : Alexandra Zaïnal
Concept & Development : Baudouin d'Aumeries
Co-Development & Prog : Marc-Olivier Méhu
Technical & hardware support : Manuel Goepfert

Contact : metmap@orbifly.com




SOURCES & CREDITS :

   NOAA